createdAt,value
2018-06-18T00:02:43.478Z,5.33
2018-06-18T00:07:46.605Z,10.20
2018-06-18T00:12:48.752Z,8.90
2018-06-18T00:17:50.874Z,9.30
2018-06-18T00:22:53.003Z,7.40
2018-06-18T00:27:55.131Z,8.47
2018-06-18T00:32:57.952Z,9.70
2018-06-18T00:38:00.056Z,9.77
2018-06-18T00:43:02.496Z,16.73
2018-06-18T00:48:04.684Z,11.63
2018-06-18T00:53:06.804Z,9.23
2018-06-18T00:58:08.919Z,8.67
2018-06-18T01:03:11.207Z,13.27
2018-06-18T01:08:13.334Z,7.90
2018-06-18T01:13:15.518Z,9.30
2018-06-18T01:18:17.684Z,7.23
2018-06-18T01:23:44.286Z,12.63
2018-06-18T01:28:46.450Z,19.10
2018-06-18T01:33:49.357Z,10.93
2018-06-18T01:38:51.483Z,7.57
2018-06-18T01:43:53.607Z,11.33
2018-06-18T01:48:55.742Z,13.87
2018-06-18T01:53:57.889Z,3.83
2018-06-18T01:59:00.031Z,14.40
2018-06-18T02:04:02.275Z,9.40
2018-06-18T02:09:07.435Z,12.60
2018-06-18T02:14:10.484Z,9.17
2018-06-18T02:19:12.603Z,13.73
2018-06-18T02:24:14.724Z,7.63
2018-06-18T02:29:22.570Z,7.40
2018-06-18T02:34:30.457Z,17.27
2018-06-18T02:39:37.179Z,6.87
2018-06-18T02:44:39.304Z,13.93
2018-06-18T02:49:41.446Z,9.37
2018-06-18T02:54:43.581Z,13.30
2018-06-18T02:59:45.731Z,7.93
2018-06-18T03:04:47.847Z,14.50
2018-06-18T03:09:49.956Z,15.30
2018-06-18T03:14:52.133Z,9.90
2018-06-18T03:19:59.910Z,7.77
2018-06-18T03:25:07.830Z,11.80
2018-06-18T03:30:10.005Z,11.83
2018-06-18T03:35:12.140Z,10.50
2018-06-18T03:40:14.267Z,12.80
2018-06-18T03:45:28.876Z,16.83
2018-06-18T03:50:31.013Z,11.80
2018-06-18T03:55:39.252Z,10.03
2018-06-18T04:00:58.879Z,11.70
2018-06-18T04:06:06.810Z,9.47
2018-06-18T04:11:14.520Z,11.73
2018-06-18T04:16:16.678Z,14.33
2018-06-18T04:21:18.827Z,9.23
2018-06-18T04:26:20.960Z,10.93
2018-06-18T04:31:23.131Z,12.63
2018-06-18T04:36:25.263Z,14.93
2018-06-18T04:41:27.396Z,10.80
2018-06-18T04:46:35.232Z,13.27
2018-06-18T04:51:37.358Z,10.73
2018-06-18T04:56:39.517Z,10.77
2018-06-18T05:01:41.610Z,13.93
2018-06-18T05:06:43.748Z,17.50
2018-06-18T05:11:45.847Z,16.00
2018-06-18T05:16:48.099Z,14.50
2018-06-18T05:21:50.237Z,17.47
2018-06-18T05:26:53.928Z,12.70
2018-06-18T05:31:56.048Z,12.60
2018-06-18T05:37:00.541Z,16.80
2018-06-18T05:42:02.689Z,10.00
2018-06-18T05:47:05.006Z,12.13
2018-06-18T05:52:07.139Z,13.07
2018-06-18T05:57:09.277Z,11.53
2018-06-18T06:02:11.418Z,11.97
2018-06-18T06:07:13.555Z,10.97
2018-06-18T06:12:15.690Z,9.83
2018-06-18T06:17:17.879Z,10.60
2018-06-18T06:22:20.062Z,17.23
2018-06-18T06:27:23.072Z,11.73
2018-06-18T06:32:25.248Z,12.87
2018-06-18T06:37:27.454Z,13.90
2018-06-18T06:42:29.585Z,8.90
2018-06-18T06:47:31.743Z,13.50
2018-06-18T06:52:33.885Z,8.80
2018-06-18T06:57:36.032Z,12.50
2018-06-18T07:02:38.177Z,8.37
2018-06-18T07:07:40.319Z,11.50
2018-06-18T07:12:42.480Z,20.73
2018-06-18T07:17:44.743Z,10.83
2018-06-18T07:22:47.414Z,10.63
2018-06-18T07:27:49.645Z,9.60
2018-06-18T07:32:52.320Z,20.03
2018-06-18T07:37:54.468Z,17.50
2018-06-18T07:42:56.607Z,18.23
2018-06-18T07:47:58.790Z,16.10
2018-06-18T07:53:00.955Z,20.07
2018-06-18T07:58:03.142Z,16.70
2018-06-18T08:03:05.526Z,14.97
2018-06-18T08:08:07.683Z,14.50
2018-06-18T08:13:09.942Z,12.00
2018-06-18T08:18:12.111Z,13.63
2018-06-18T08:23:14.228Z,11.57
2018-06-18T08:28:16.707Z,8.80
2018-06-18T08:33:18.973Z,14.27
2018-06-18T08:38:21.382Z,7.17
2018-06-18T08:43:23.657Z,9.73
2018-06-18T08:48:31.566Z,13.03
2018-06-18T08:53:39.487Z,12.80
2018-06-18T08:58:47.366Z,7.43
2018-06-18T09:03:51.817Z,13.60
2018-06-18T09:08:55.483Z,14.33
2018-06-18T09:14:04.544Z,13.07
2018-06-18T09:19:06.788Z,10.97
2018-06-18T09:24:08.984Z,11.57
2018-06-18T09:29:11.156Z,17.30
2018-06-18T09:34:13.531Z,13.10
2018-06-18T09:39:15.664Z,12.30
2018-06-18T09:44:17.924Z,12.17
2018-06-18T09:49:25.818Z,9.93
2018-06-18T09:54:42.329Z,14.43
2018-06-18T09:59:50.400Z,13.67
2018-06-18T10:04:52.567Z,14.13
2018-06-18T10:09:55.242Z,10.03
2018-06-18T10:14:57.350Z,9.67
2018-06-18T10:20:01.583Z,16.10
2018-06-18T10:25:03.964Z,10.10
2018-06-18T10:30:06.194Z,15.17
2018-06-18T10:35:14.124Z,15.27
2018-06-18T10:41:20.347Z,13.10
2018-06-18T10:46:22.754Z,17.53
2018-06-18T10:51:24.912Z,13.37
2018-06-18T10:56:27.095Z,14.90
2018-06-18T11:01:30.880Z,23.37
2018-06-18T11:06:37.276Z,13.13
2018-06-18T11:11:39.458Z,14.80
2018-06-18T11:16:41.801Z,29.13
2018-06-18T11:21:49.582Z,21.50
2018-06-18T11:26:54.656Z,20.87
2018-06-18T11:31:57.120Z,20.13
2018-06-18T11:36:59.548Z,18.23
2018-06-18T11:42:01.716Z,15.37
2018-06-18T11:47:03.927Z,16.90
2018-06-18T11:52:06.564Z,20.77
2018-06-18T11:57:08.752Z,18.13
2018-06-18T12:02:16.542Z,22.50
2018-06-18T12:07:24.355Z,21.60
2018-06-18T12:12:26.432Z,22.50
2018-06-18T12:17:28.576Z,19.00
2018-06-18T12:22:30.770Z,22.30
2018-06-18T12:27:34.035Z,20.67
2018-06-18T12:32:36.238Z,19.60
2018-06-18T12:37:38.495Z,14.30
2018-06-18T12:42:40.692Z,16.70
2018-06-18T12:47:48.633Z,15.77
2018-06-18T12:52:56.615Z,13.67
2018-06-18T12:57:58.803Z,14.33
2018-06-18T13:03:10.118Z,15.80
2018-06-18T13:08:12.311Z,13.00
2018-06-18T13:13:14.508Z,16.47
2018-06-18T13:18:16.716Z,15.07
2018-06-18T13:23:18.899Z,14.57
2018-06-18T13:28:21.088Z,15.53
2018-06-18T13:33:23.316Z,22.13
2018-06-18T13:38:31.234Z,15.43
2018-06-18T13:43:39.167Z,15.53
2018-06-18T13:48:46.402Z,15.10
2018-06-18T13:53:48.541Z,18.70
2018-06-18T13:58:51.363Z,16.70
2018-06-18T14:03:53.539Z,19.97
2018-06-18T14:08:55.701Z,22.53
2018-06-18T14:13:58.247Z,25.03
2018-06-18T14:19:05.035Z,18.43
2018-06-18T14:24:07.232Z,18.80
2018-06-18T14:29:13.973Z,18.80
2018-06-18T14:34:21.803Z,21.70
2018-06-18T14:39:29.724Z,22.50
2018-06-18T14:44:32.020Z,23.07
2018-06-18T14:49:34.162Z,26.33
2018-06-18T14:54:36.339Z,23.17
2018-06-18T14:59:46.141Z,20.70
2018-06-18T15:04:48.322Z,27.13
2018-06-18T15:09:50.527Z,24.40
2018-06-18T15:14:58.317Z,24.53
2018-06-18T15:20:00.540Z,20.67
2018-06-18T15:25:05.785Z,23.37
2018-06-18T15:30:07.935Z,20.50
2018-06-18T15:35:10.083Z,22.33
2018-06-18T15:40:12.272Z,24.17
2018-06-18T15:45:14.779Z,25.30
2018-06-18T15:50:16.974Z,24.53
2018-06-18T15:55:19.767Z,26.57
2018-06-18T16:00:21.926Z,22.80
2018-06-18T16:05:24.079Z,22.80
2018-06-18T16:10:26.222Z,18.40
2018-06-18T16:15:28.415Z,18.90
2018-06-18T16:20:30.605Z,16.47
2018-06-18T16:25:32.834Z,13.50
2018-06-18T16:30:35.023Z,11.60
2018-06-18T16:35:37.189Z,16.13
2018-06-18T16:40:39.428Z,11.10
2018-06-18T16:45:41.626Z,8.73
2018-06-18T16:50:43.824Z,7.37
2018-06-18T16:55:46.065Z,10.70
2018-06-18T17:00:48.295Z,10.47
2018-06-18T17:05:50.519Z,9.97
2018-06-18T17:10:52.698Z,10.90
2018-06-18T17:15:54.932Z,8.80
2018-06-18T17:20:57.124Z,7.33
2018-06-18T17:25:59.404Z,8.97
2018-06-18T17:31:01.673Z,10.37
2018-06-18T17:36:03.917Z,8.23
2018-06-18T17:41:06.203Z,8.37
2018-06-18T17:46:10.299Z,9.70
2018-06-18T17:51:13.504Z,10.70
2018-06-18T17:56:15.789Z,11.57
2018-06-18T18:01:18.461Z,10.63
2018-06-18T18:06:22.022Z,10.10
2018-06-18T18:11:26.508Z,9.33
2018-06-18T18:16:30.023Z,8.77
2018-06-18T18:21:32.936Z,11.13
2018-06-18T18:26:35.320Z,15.13
2018-06-18T18:31:37.552Z,10.90
2018-06-18T18:36:39.768Z,10.40
2018-06-18T18:41:42.679Z,12.20
2018-06-18T18:46:44.884Z,10.23
2018-06-18T18:51:48.034Z,16.57
2018-06-18T18:57:01.644Z,12.43
2018-06-18T19:02:03.873Z,17.77
2018-06-18T19:07:06.524Z,16.00
2018-06-18T19:12:08.733Z,17.37
2018-06-18T19:17:10.961Z,16.10
2018-06-18T19:22:13.325Z,17.03
2018-06-18T19:27:15.568Z,17.10
2018-06-18T19:32:17.856Z,14.43
2018-06-18T19:37:20.179Z,18.47
2018-06-18T19:42:23.264Z,15.63
2018-06-18T19:47:43.794Z,14.17
2018-06-18T19:52:46.045Z,19.13
2018-06-18T19:57:48.235Z,12.20
2018-06-18T20:02:50.414Z,18.83
2018-06-18T20:07:57.591Z,17.70
2018-06-18T20:12:59.825Z,15.90
2018-06-18T20:18:02.052Z,16.10
2018-06-18T20:23:06.471Z,18.67
2018-06-18T20:28:08.700Z,24.97
2018-06-18T20:33:12.309Z,21.30
2018-06-18T20:38:14.534Z,21.20
2018-06-18T20:43:16.994Z,23.93
2018-06-18T20:48:19.266Z,18.20
2018-06-18T20:53:21.478Z,19.93
2018-06-18T20:58:23.664Z,18.23
2018-06-18T21:03:25.847Z,19.67
2018-06-18T21:08:28.036Z,21.20
2018-06-18T21:13:30.191Z,20.27
2018-06-18T21:18:32.380Z,20.53
2018-06-18T21:23:34.555Z,19.13
2018-06-18T21:28:36.764Z,21.63
2018-06-18T21:33:39.048Z,17.07
2018-06-18T21:38:41.207Z,21.77
2018-06-18T21:43:43.539Z,22.77
2018-06-18T21:48:45.673Z,20.03
2018-06-18T21:53:47.843Z,26.17
2018-06-18T21:58:50.027Z,29.67
2018-06-18T22:03:52.168Z,24.00
2018-06-18T22:08:54.345Z,24.53
2018-06-18T22:13:56.510Z,21.73
2018-06-18T22:18:58.695Z,23.00
2018-06-18T22:24:01.593Z,24.07
2018-06-18T22:29:04.817Z,27.10
2018-06-18T22:34:07.613Z,20.47
2018-06-18T22:39:11.519Z,29.20
2018-06-18T22:44:14.009Z,21.40
2018-06-18T22:49:16.387Z,18.60
2018-06-18T22:54:18.874Z,17.23
2018-06-18T22:59:21.360Z,13.80
2018-06-18T23:04:23.950Z,15.70
2018-06-18T23:09:26.842Z,15.27
2018-06-18T23:14:29.335Z,17.73
2018-06-18T23:19:31.780Z,16.40
2018-06-18T23:24:34.534Z,14.97
2018-06-18T23:29:39.194Z,18.70
2018-06-18T23:34:41.973Z,17.73
2018-06-18T23:39:44.444Z,15.30
2018-06-18T23:44:46.922Z,22.20
2018-06-18T23:49:49.413Z,19.83
2018-06-18T23:54:52.524Z,18.23
2018-06-18T23:59:58.274Z,14.10
